sensor_id;sensor_type;location;lat;lon;timestamp;temperature;humidity
75380;HTU21D;65641;44.714;37.756;2023-04-25T00:00:18;13.14;75.79
75380;HTU21D;65641;44.714;37.756;2023-04-25T00:01:21;13.12;75.81
75380;HTU21D;65641;44.714;37.756;2023-04-25T00:02:25;13.14;75.83
75380;HTU21D;65641;44.714;37.756;2023-04-25T00:03:28;13.11;75.81
75380;HTU21D;65641;44.714;37.756;2023-04-25T00:04:32;13.14;75.81
75380;HTU21D;65641;44.714;37.756;2023-04-25T00:05:37;13.11;75.82
75380;HTU21D;65641;44.714;37.756;2023-04-25T00:06:40;13.12;75.82
75380;HTU21D;65641;44.714;37.756;2023-04-25T00:07:43;13.11;75.84
75380;HTU21D;65641;44.714;37.756;2023-04-25T00:08:46;13.11;75.86
75380;HTU21D;65641;44.714;37.756;2023-04-25T00:09:49;13.10;75.88
75380;HTU21D;65641;44.714;37.756;2023-04-25T00:10:52;13.10;75.88
75380;HTU21D;65641;44.714;37.756;2023-04-25T00:11:55;13.10;75.89
75380;HTU21D;65641;44.714;37.756;2023-04-25T00:13:00;13.10;75.88
75380;HTU21D;65641;44.714;37.756;2023-04-25T00:14:04;13.09;75.90
75380;HTU21D;65641;44.714;37.756;2023-04-25T00:15:09;13.09;75.92
75380;HTU21D;65641;44.714;37.756;2023-04-25T00:16:13;13.09;75.92
75380;HTU21D;65641;44.714;37.756;2023-04-25T00:17:18;13.09;75.93
75380;HTU21D;65641;44.714;37.756;2023-04-25T00:18:22;13.08;75.95
75380;HTU21D;65641;44.714;37.756;2023-04-25T00:19:25;13.08;75.97
75380;HTU21D;65641;44.714;37.756;2023-04-25T00:20:29;13.08;75.96
75380;HTU21D;65641;44.714;37.756;2023-04-25T00:21:32;13.08;75.97
75380;HTU21D;65641;44.714;37.756;2023-04-25T00:22:35;13.08;75.97
75380;HTU21D;65641;44.714;37.756;2023-04-25T00:23:39;13.09;75.98
75380;HTU21D;65641;44.714;37.756;2023-04-25T00:24:43;13.08;75.99
75380;HTU21D;65641;44.714;37.756;2023-04-25T00:25:47;13.07;75.99
75380;HTU21D;65641;44.714;37.756;2023-04-25T00:26:50;13.08;76.02
75380;HTU21D;65641;44.714;37.756;2023-04-25T00:27:53;13.08;76.02
75380;HTU21D;65641;44.714;37.756;2023-04-25T00:28:56;13.08;76.02
75380;HTU21D;65641;44.714;37.756;2023-04-25T00:29:59;13.07;76.01
75380;HTU21D;65641;44.714;37.756;2023-04-25T00:31:04;13.08;76.00
75380;HTU21D;65641;44.714;37.756;2023-04-25T00:32:07;13.08;76.02
75380;HTU21D;65641;44.714;37.756;2023-04-25T00:33:10;13.07;76.03
75380;HTU21D;65641;44.714;37.756;2023-04-25T00:34:13;13.07;76.03
75380;HTU21D;65641;44.714;37.756;2023-04-25T00:35:16;13.06;76.02
75380;HTU21D;65641;44.714;37.756;2023-04-25T00:36:19;13.06;76.02
75380;HTU21D;65641;44.714;37.756;2023-04-25T00:37:22;13.06;76.01
75380;HTU21D;65641;44.714;37.756;2023-04-25T00:38:25;13.05;75.99
75380;HTU21D;65641;44.714;37.756;2023-04-25T00:39:27;13.05;75.99
75380;HTU21D;65641;44.714;37.756;2023-04-25T00:40:30;13.06;75.99
75380;HTU21D;65641;44.714;37.756;2023-04-25T00:41:33;13.05;75.97
75380;HTU21D;65641;44.714;37.756;2023-04-25T00:42:37;13.05;75.97
75380;HTU21D;65641;44.714;37.756;2023-04-25T00:43:40;13.05;75.98
75380;HTU21D;65641;44.714;37.756;2023-04-25T00:44:45;13.04;75.97
75380;HTU21D;65641;44.714;37.756;2023-04-25T00:45:48;13.03;75.99
75380;HTU21D;65641;44.714;37.756;2023-04-25T00:46:54;13.03;76.00
75380;HTU21D;65641;44.714;37.756;2023-04-25T00:47:57;13.02;76.00
75380;HTU21D;65641;44.714;37.756;2023-04-25T00:49:00;13.04;76.02
75380;HTU21D;65641;44.714;37.756;2023-04-25T00:50:03;13.03;76.02
75380;HTU21D;65641;44.714;37.756;2023-04-25T00:51:07;13.02;76.04
75380;HTU21D;65641;44.714;37.756;2023-04-25T00:52:11;13.02;76.06
75380;HTU21D;65641;44.714;37.756;2023-04-25T00:53:14;13.02;76.07
75380;HTU21D;65641;44.714;37.756;2023-04-25T00:54:17;13.01;76.07
75380;HTU21D;65641;44.714;37.756;2023-04-25T00:55:21;13.01;76.10
75380;HTU21D;65641;44.714;37.756;2023-04-25T00:56:25;13.02;76.10
75380;HTU21D;65641;44.714;37.756;2023-04-25T00:57:28;13.01;76.11
75380;HTU21D;65641;44.714;37.756;2023-04-25T00:58:32;13.01;76.13
75380;HTU21D;65641;44.714;37.756;2023-04-25T00:59:36;13.00;76.14
75380;HTU21D;65641;44.714;37.756;2023-04-25T01:00:40;13.01;76.14
75380;HTU21D;65641;44.714;37.756;2023-04-25T01:01:45;13.01;76.18
75380;HTU21D;65641;44.714;37.756;2023-04-25T01:02:48;13.00;76.18
75380;HTU21D;65641;44.714;37.756;2023-04-25T01:03:53;13.00;76.18
75380;HTU21D;65641;44.714;37.756;2023-04-25T01:04:57;13.00;76.18
75380;HTU21D;65641;44.714;37.756;2023-04-25T01:06:01;13.01;76.20
75380;HTU21D;65641;44.714;37.756;2023-04-25T01:07:05;13.00;76.20
75380;HTU21D;65641;44.714;37.756;2023-04-25T01:08:09;12.99;76.18
75380;HTU21D;65641;44.714;37.756;2023-04-25T01:09:13;13.00;76.19
75380;HTU21D;65641;44.714;37.756;2023-04-25T01:10:16;13.00;76.20
75380;HTU21D;65641;44.714;37.756;2023-04-25T01:11:19;13.00;76.19
75380;HTU21D;65641;44.714;37.756;2023-04-25T01:12:23;12.99;76.20
75380;HTU21D;65641;44.714;37.756;2023-04-25T01:13:26;12.99;76.20
75380;HTU21D;65641;44.714;37.756;2023-04-25T01:14:29;13.00;76.22
75380;HTU21D;65641;44.714;37.756;2023-04-25T01:15:33;12.97;76.23
75380;HTU21D;65641;44.714;37.756;2023-04-25T01:16:36;13.00;76.22
75380;HTU21D;65641;44.714;37.756;2023-04-25T01:17:40;12.99;76.23
75380;HTU21D;65641;44.714;37.756;2023-04-25T01:18:45;12.97;76.24
75380;HTU21D;65641;44.714;37.756;2023-04-25T01:19:49;12.96;76.24
75380;HTU21D;65641;44.714;37.756;2023-04-25T01:20:53;12.96;76.24
75380;HTU21D;65641;44.714;37.756;2023-04-25T01:21:57;12.97;76.26
75380;HTU21D;65641;44.714;37.756;2023-04-25T01:23:01;12.96;76.26
75380;HTU21D;65641;44.714;37.756;2023-04-25T01:24:06;12.95;76.28
75380;HTU21D;65641;44.714;37.756;2023-04-25T01:25:10;12.95;76.27
75380;HTU21D;65641;44.714;37.756;2023-04-25T01:26:13;12.94;76.27
75380;HTU21D;65641;44.714;37.756;2023-04-25T01:27:18;12.95;76.28
75380;HTU21D;65641;44.714;37.756;2023-04-25T01:28:21;12.95;76.28
75380;HTU21D;65641;44.714;37.756;2023-04-25T01:29:26;12.94;76.28
75380;HTU21D;65641;44.714;37.756;2023-04-25T01:30:30;12.93;76.28
75380;HTU21D;65641;44.714;37.756;2023-04-25T01:31:34;12.94;76.27
75380;HTU21D;65641;44.714;37.756;2023-04-25T01:32:38;12.93;76.26
75380;HTU21D;65641;44.714;37.756;2023-04-25T01:33:42;12.94;76.26
75380;HTU21D;65641;44.714;37.756;2023-04-25T01:34:45;12.92;76.25
75380;HTU21D;65641;44.714;37.756;2023-04-25T01:35:48;12.91;76.26
75380;HTU21D;65641;44.714;37.756;2023-04-25T01:36:54;12.91;76.25
75380;HTU21D;65641;44.714;37.756;2023-04-25T01:37:58;12.90;76.28
75380;HTU21D;65641;44.714;37.756;2023-04-25T01:39:01;12.89;76.28
75380;HTU21D;65641;44.714;37.756;2023-04-25T01:40:05;12.88;76.30
75380;HTU21D;65641;44.714;37.756;2023-04-25T01:41:08;12.89;76.32
75380;HTU21D;65641;44.714;37.756;2023-04-25T01:42:12;12.87;76.34
75380;HTU21D;65641;44.714;37.756;2023-04-25T01:43:16;12.87;76.35
75380;HTU21D;65641;44.714;37.756;2023-04-25T01:44:19;12.86;76.37
75380;HTU21D;65641;44.714;37.756;2023-04-25T01:45:23;12.85;76.38
75380;HTU21D;65641;44.714;37.756;2023-04-25T01:46:27;12.86;76.41
75380;HTU21D;65641;44.714;37.756;2023-04-25T01:47:30;12.84;76.41
75380;HTU21D;65641;44.714;37.756;2023-04-25T01:48:34;12.85;76.44
75380;HTU21D;65641;44.714;37.756;2023-04-25T01:49:37;12.84;76.45
75380;HTU21D;65641;44.714;37.756;2023-04-25T01:50:41;12.84;76.45
75380;HTU21D;65641;44.714;37.756;2023-04-25T01:51:44;12.82;76.48
75380;HTU21D;65641;44.714;37.756;2023-04-25T01:52:48;12.82;76.48
75380;HTU21D;65641;44.714;37.756;2023-04-25T01:53:52;12.82;76.52
75380;HTU21D;65641;44.714;37.756;2023-04-25T01:54:56;12.81;76.54
75380;HTU21D;65641;44.714;37.756;2023-04-25T01:56:01;12.81;76.58
75380;HTU21D;65641;44.714;37.756;2023-04-25T01:57:08;12.81;76.60
75380;HTU21D;65641;44.714;37.756;2023-04-25T01:58:13;12.81;76.62
75380;HTU21D;65641;44.714;37.756;2023-04-25T01:59:35;12.80;76.64
75380;HTU21D;65641;44.714;37.756;2023-04-25T02:00:56;12.80;76.68
75380;HTU21D;65641;44.714;37.756;2023-04-25T02:02:03;12.80;76.70
75380;HTU21D;65641;44.714;37.756;2023-04-25T02:03:08;12.80;76.73
75380;HTU21D;65641;44.714;37.756;2023-04-25T02:04:11;12.79;76.73
75380;HTU21D;65641;44.714;37.756;2023-04-25T02:05:17;12.80;76.76
75380;HTU21D;65641;44.714;37.756;2023-04-25T02:06:20;12.80;76.77
75380;HTU21D;65641;44.714;37.756;2023-04-25T02:07:26;12.78;76.78
75380;HTU21D;65641;44.714;37.756;2023-04-25T02:08:29;12.80;76.80
75380;HTU21D;65641;44.714;37.756;2023-04-25T02:09:33;12.80;76.80
75380;HTU21D;65641;44.714;37.756;2023-04-25T02:10:40;12.80;76.83
75380;HTU21D;65641;44.714;37.756;2023-04-25T02:11:49;12.79;76.84
75380;HTU21D;65641;44.714;37.756;2023-04-25T02:13:03;12.80;76.86
75380;HTU21D;65641;44.714;37.756;2023-04-25T02:14:27;12.80;76.90
75380;HTU21D;65641;44.714;37.756;2023-04-25T02:15:54;12.80;76.89
75380;HTU21D;65641;44.714;37.756;2023-04-25T02:16:57;12.81;76.90
75380;HTU21D;65641;44.714;37.756;2023-04-25T02:18:01;12.81;76.92
75380;HTU21D;65641;44.714;37.756;2023-04-25T02:19:05;12.81;76.92
75380;HTU21D;65641;44.714;37.756;2023-04-25T02:20:09;12.82;76.93
75380;HTU21D;65641;44.714;37.756;2023-04-25T02:21:14;12.84;76.95
75380;HTU21D;65641;44.714;37.756;2023-04-25T02:22:18;12.81;76.94
75380;HTU21D;65641;44.714;37.756;2023-04-25T02:23:25;12.84;76.95
75380;HTU21D;65641;44.714;37.756;2023-04-25T02:24:28;12.84;76.95
75380;HTU21D;65641;44.714;37.756;2023-04-25T02:25:31;12.85;76.94
75380;HTU21D;65641;44.714;37.756;2023-04-25T02:26:35;12.82;76.97
75380;HTU21D;65641;44.714;37.756;2023-04-25T02:27:43;12.85;76.96
75380;HTU21D;65641;44.714;37.756;2023-04-25T02:28:46;12.85;76.94
75380;HTU21D;65641;44.714;37.756;2023-04-25T02:29:49;12.87;76.94
75380;HTU21D;65641;44.714;37.756;2023-04-25T02:30:52;12.86;76.95
75380;HTU21D;65641;44.714;37.756;2023-04-25T02:31:56;12.86;76.95
75380;HTU21D;65641;44.714;37.756;2023-04-25T02:33:01;12.86;76.94
75380;HTU21D;65641;44.714;37.756;2023-04-25T02:34:04;12.88;76.93
75380;HTU21D;65641;44.714;37.756;2023-04-25T02:35:11;12.87;76.93
75380;HTU21D;65641;44.714;37.756;2023-04-25T02:36:14;12.87;76.93
75380;HTU21D;65641;44.714;37.756;2023-04-25T02:37:18;12.89;76.94
75380;HTU21D;65641;44.714;37.756;2023-04-25T02:38:21;12.88;76.93
75380;HTU21D;65641;44.714;37.756;2023-04-25T02:39:24;12.89;76.95
75380;HTU21D;65641;44.714;37.756;2023-04-25T02:40:27;12.89;76.96
75380;HTU21D;65641;44.714;37.756;2023-04-25T02:41:30;12.89;76.97
75380;HTU21D;65641;44.714;37.756;2023-04-25T02:42:33;12.90;76.95
75380;HTU21D;65641;44.714;37.756;2023-04-25T02:43:37;12.90;76.94
75380;HTU21D;65641;44.714;37.756;2023-04-25T02:44:40;12.91;76.94
75380;HTU21D;65641;44.714;37.756;2023-04-25T02:45:43;12.91;76.93
75380;HTU21D;65641;44.714;37.756;2023-04-25T02:46:47;12.91;76.92
75380;HTU21D;65641;44.714;37.756;2023-04-25T02:47:51;12.92;76.92
75380;HTU21D;65641;44.714;37.756;2023-04-25T02:48:54;12.93;76.92
75380;HTU21D;65641;44.714;37.756;2023-04-25T02:49:57;12.93;76.92
75380;HTU21D;65641;44.714;37.756;2023-04-25T02:51:00;12.92;76.92
75380;HTU21D;65641;44.714;37.756;2023-04-25T02:52:04;12.93;76.92
75380;HTU21D;65641;44.714;37.756;2023-04-25T02:53:07;12.95;76.90
75380;HTU21D;65641;44.714;37.756;2023-04-25T02:54:18;12.95;76.90
75380;HTU21D;65641;44.714;37.756;2023-04-25T02:55:23;12.96;76.92
75380;HTU21D;65641;44.714;37.756;2023-04-25T02:56:29;12.96;76.89
75380;HTU21D;65641;44.714;37.756;2023-04-25T02:57:33;12.97;76.89
75380;HTU21D;65641;44.714;37.756;2023-04-25T02:58:36;12.97;76.88
75380;HTU21D;65641;44.714;37.756;2023-04-25T02:59:39;12.97;76.84
75380;HTU21D;65641;44.714;37.756;2023-04-25T03:00:42;13.00;76.84
75380;HTU21D;65641;44.714;37.756;2023-04-25T03:01:45;12.99;76.82
75380;HTU21D;65641;44.714;37.756;2023-04-25T03:02:48;13.00;76.82
75380;HTU21D;65641;44.714;37.756;2023-04-25T03:03:52;12.99;76.84
75380;HTU21D;65641;44.714;37.756;2023-04-25T03:04:55;13.00;76.82
75380;HTU21D;65641;44.714;37.756;2023-04-25T03:05:58;12.99;76.82
75380;HTU21D;65641;44.714;37.756;2023-04-25T03:07:06;13.03;76.79
75380;HTU21D;65641;44.714;37.756;2023-04-25T03:08:09;13.01;76.79
75380;HTU21D;65641;44.714;37.756;2023-04-25T03:09:13;13.02;76.78
75380;HTU21D;65641;44.714;37.756;2023-04-25T03:10:16;13.03;76.74
75380;HTU21D;65641;44.714;37.756;2023-04-25T03:11:20;13.03;76.74
75380;HTU21D;65641;44.714;37.756;2023-04-25T03:12:23;13.02;76.72
75380;HTU21D;65641;44.714;37.756;2023-04-25T03:13:26;13.03;76.69
75380;HTU21D;65641;44.714;37.756;2023-04-25T03:14:30;13.04;76.65
75380;HTU21D;65641;44.714;37.756;2023-04-25T03:15:33;13.04;76.61
75380;HTU21D;65641;44.714;37.756;2023-04-25T03:16:36;13.04;76.61
75380;HTU21D;65641;44.714;37.756;2023-04-25T03:17:39;13.04;76.60
75380;HTU21D;65641;44.714;37.756;2023-04-25T03:18:43;13.04;76.60
75380;HTU21D;65641;44.714;37.756;2023-04-25T03:19:48;13.04;76.62
75380;HTU21D;65641;44.714;37.756;2023-04-25T03:20:51;13.05;76.63
75380;HTU21D;65641;44.714;37.756;2023-04-25T03:21:54;13.05;76.66
75380;HTU21D;65641;44.714;37.756;2023-04-25T03:22:57;13.06;76.70
75380;HTU21D;65641;44.714;37.756;2023-04-25T03:24:03;13.05;76.74
75380;HTU21D;65641;44.714;37.756;2023-04-25T03:25:07;13.06;76.76
75380;HTU21D;65641;44.714;37.756;2023-04-25T03:26:10;13.06;76.82
75380;HTU21D;65641;44.714;37.756;2023-04-25T03:27:13;13.07;76.84
75380;HTU21D;65641;44.714;37.756;2023-04-25T03:28:16;13.08;76.86
75380;HTU21D;65641;44.714;37.756;2023-04-25T03:29:19;13.08;76.89
75380;HTU21D;65641;44.714;37.756;2023-04-25T03:30:27;13.09;76.93
75380;HTU21D;65641;44.714;37.756;2023-04-25T03:31:30;13.10;76.93
75380;HTU21D;65641;44.714;37.756;2023-04-25T03:32:35;13.10;76.89
75380;HTU21D;65641;44.714;37.756;2023-04-25T03:33:38;13.10;76.82
75380;HTU21D;65641;44.714;37.756;2023-04-25T03:34:41;13.12;76.76
75380;HTU21D;65641;44.714;37.756;2023-04-25T03:35:44;13.14;76.71
75380;HTU21D;65641;44.714;37.756;2023-04-25T03:36:48;13.15;76.71
75380;HTU21D;65641;44.714;37.756;2023-04-25T03:37:51;13.16;76.75
75380;HTU21D;65641;44.714;37.756;2023-04-25T03:39:00;13.18;76.73
75380;HTU21D;65641;44.714;37.756;2023-04-25T03:40:06;13.18;76.77
75380;HTU21D;65641;44.714;37.756;2023-04-25T03:41:32;13.19;76.79
75380;HTU21D;65641;44.714;37.756;2023-04-25T03:42:39;13.20;76.78
75380;HTU21D;65641;44.714;37.756;2023-04-25T03:43:43;13.21;76.80
75380;HTU21D;65641;44.714;37.756;2023-04-25T03:44:49;13.23;76.80
75380;HTU21D;65641;44.714;37.756;2023-04-25T03:45:52;13.23;76.73
75380;HTU21D;65641;44.714;37.756;2023-04-25T03:46:57;13.25;76.70
75380;HTU21D;65641;44.714;37.756;2023-04-25T03:48:00;13.27;76.62
75380;HTU21D;65641;44.714;37.756;2023-04-25T03:49:04;13.26;76.59
75380;HTU21D;65641;44.714;37.756;2023-04-25T03:50:27;13.29;76.47
75380;HTU21D;65641;44.714;37.756;2023-04-25T03:51:30;13.30;76.40
75380;HTU21D;65641;44.714;37.756;2023-04-25T03:52:33;13.32;76.31
75380;HTU21D;65641;44.714;37.756;2023-04-25T03:53:38;13.31;76.25
75380;HTU21D;65641;44.714;37.756;2023-04-25T03:55:01;13.32;76.18
75380;HTU21D;65641;44.714;37.756;2023-04-25T03:56:07;13.34;76.16
75380;HTU21D;65641;44.714;37.756;2023-04-25T03:57:12;13.34;76.15
75380;HTU21D;65641;44.714;37.756;2023-04-25T03:58:15;13.36;76.12
75380;HTU21D;65641;44.714;37.756;2023-04-25T03:59:18;13.37;76.10
75380;HTU21D;65641;44.714;37.756;2023-04-25T04:00:21;13.37;76.08
75380;HTU21D;65641;44.714;37.756;2023-04-25T04:01:27;13.37;76.05
75380;HTU21D;65641;44.714;37.756;2023-04-25T04:02:31;13.39;76.01
75380;HTU21D;65641;44.714;37.756;2023-04-25T04:03:36;13.40;75.99
75380;HTU21D;65641;44.714;37.756;2023-04-25T04:04:40;13.40;75.96
75380;HTU21D;65641;44.714;37.756;2023-04-25T04:05:43;13.41;75.96
75380;HTU21D;65641;44.714;37.756;2023-04-25T04:06:47;13.41;75.93
75380;HTU21D;65641;44.714;37.756;2023-04-25T04:07:56;13.44;75.92
75380;HTU21D;65641;44.714;37.756;2023-04-25T04:08:59;13.45;75.90
75380;HTU21D;65641;44.714;37.756;2023-04-25T04:10:09;13.46;75.86
75380;HTU21D;65641;44.714;37.756;2023-04-25T04:11:14;13.47;75.84
75380;HTU21D;65641;44.714;37.756;2023-04-25T04:12:17;13.48;75.81
75380;HTU21D;65641;44.714;37.756;2023-04-25T04:13:20;13.48;75.76
75380;HTU21D;65641;44.714;37.756;2023-04-25T04:14:23;13.49;75.73
75380;HTU21D;65641;44.714;37.756;2023-04-25T04:15:26;13.50;75.67
75380;HTU21D;65641;44.714;37.756;2023-04-25T04:16:30;13.51;75.60
75380;HTU21D;65641;44.714;37.756;2023-04-25T04:17:36;13.52;75.52
75380;HTU21D;65641;44.714;37.756;2023-04-25T04:18:39;13.51;75.46
75380;HTU21D;65641;44.714;37.756;2023-04-25T04:19:42;13.52;75.41
75380;HTU21D;65641;44.714;37.756;2023-04-25T04:20:54;13.53;75.38
75380;HTU21D;65641;44.714;37.756;2023-04-25T04:21:57;13.54;75.31
75380;HTU21D;65641;44.714;37.756;2023-04-25T04:23:01;13.54;75.27
75380;HTU21D;65641;44.714;37.756;2023-04-25T04:24:05;13.54;75.24
75380;HTU21D;65641;44.714;37.756;2023-04-25T04:25:21;13.54;75.24
75380;HTU21D;65641;44.714;37.756;2023-04-25T04:26:43;13.54;75.22
75380;HTU21D;65641;44.714;37.756;2023-04-25T04:28:06;13.54;75.26
75380;HTU21D;65641;44.714;37.756;2023-04-25T04:29:24;13.55;75.26
75380;HTU21D;65641;44.714;37.756;2023-04-25T04:30:35;13.54;75.25
75380;HTU21D;65641;44.714;37.756;2023-04-25T04:31:42;13.55;75.24
75380;HTU21D;65641;44.714;37.756;2023-04-25T04:32:46;13.54;75.23
75380;HTU21D;65641;44.714;37.756;2023-04-25T04:33:52;13.55;75.29
75380;HTU21D;65641;44.714;37.756;2023-04-25T04:34:55;13.55;75.36
75380;HTU21D;65641;44.714;37.756;2023-04-25T04:36:00;13.55;75.44
75380;HTU21D;65641;44.714;37.756;2023-04-25T04:37:04;13.56;75.50
75380;HTU21D;65641;44.714;37.756;2023-04-25T04:38:07;13.56;75.54
75380;HTU21D;65641;44.714;37.756;2023-04-25T04:39:12;13.58;75.60
75380;HTU21D;65641;44.714;37.756;2023-04-25T04:40:39;13.60;75.66
75380;HTU21D;65641;44.714;37.756;2023-04-25T04:41:47;13.62;75.70
75380;HTU21D;65641;44.714;37.756;2023-04-25T04:43:11;13.63;75.76
75380;HTU21D;65641;44.714;37.756;2023-04-25T04:44:32;13.68;75.74
75380;HTU21D;65641;44.714;37.756;2023-04-25T04:45:47;13.69;75.78
75380;HTU21D;65641;44.714;37.756;2023-04-25T04:47:16;13.75;75.76
75380;HTU21D;65641;44.714;37.756;2023-04-25T04:48:46;13.78;75.71
75380;HTU21D;65641;44.714;37.756;2023-04-25T04:50:21;13.81;75.68
75380;HTU21D;65641;44.714;37.756;2023-04-25T04:51:42;13.85;75.55
75380;HTU21D;65641;44.714;37.756;2023-04-25T04:53:07;13.89;75.38
75380;HTU21D;65641;44.714;37.756;2023-04-25T04:54:30;13.93;75.25
75380;HTU21D;65641;44.714;37.756;2023-04-25T04:55:56;13.95;75.05
75380;HTU21D;65641;44.714;37.756;2023-04-25T04:57:18;13.99;74.89
75380;HTU21D;65641;44.714;37.756;2023-04-25T04:58:57;14.04;74.83
75380;HTU21D;65641;44.714;37.756;2023-04-25T05:00:20;14.06;74.86
75380;HTU21D;65641;44.714;37.756;2023-04-25T05:01:42;14.11;74.87
75380;HTU21D;65641;44.714;37.756;2023-04-25T05:03:06;14.14;74.86
75380;HTU21D;65641;44.714;37.756;2023-04-25T05:04:24;14.19;74.75
75380;HTU21D;65641;44.714;37.756;2023-04-25T05:05:28;14.24;74.70
75380;HTU21D;65641;44.714;37.756;2023-04-25T05:06:48;14.27;74.60
75380;HTU21D;65641;44.714;37.756;2023-04-25T05:08:06;14.34;74.47
75380;HTU21D;65641;44.714;37.756;2023-04-25T05:09:39;14.38;74.32
75380;HTU21D;65641;44.714;37.756;2023-04-25T05:11:04;14.44;74.25
75380;HTU21D;65641;44.714;37.756;2023-04-25T05:12:37;14.51;74.07
75380;HTU21D;65641;44.714;37.756;2023-04-25T05:13:58;14.56;73.96
75380;HTU21D;65641;44.714;37.756;2023-04-25T05:15:18;14.63;73.84
75380;HTU21D;65641;44.714;37.756;2023-04-25T05:16:44;14.69;73.52
75380;HTU21D;65641;44.714;37.756;2023-04-25T05:18:11;14.72;73.28
75380;HTU21D;65641;44.714;37.756;2023-04-25T05:19:22;14.79;73.06
75380;HTU21D;65641;44.714;37.756;2023-04-25T05:20:37;14.83;72.81
75380;HTU21D;65641;44.714;37.756;2023-04-25T05:21:58;14.87;72.68
75380;HTU21D;65641;44.714;37.756;2023-04-25T05:23:24;14.92;72.64
75380;HTU21D;65641;44.714;37.756;2023-04-25T05:25:06;14.96;72.54
75380;HTU21D;65641;44.714;37.756;2023-04-25T05:26:26;15.00;72.45
75380;HTU21D;65641;44.714;37.756;2023-04-25T05:27:48;15.06;72.35
75380;HTU21D;65641;44.714;37.756;2023-04-25T05:29:03;15.08;72.27
75380;HTU21D;65641;44.714;37.756;2023-04-25T05:30:19;15.12;72.09
75380;HTU21D;65641;44.714;37.756;2023-04-25T05:31:52;15.16;72.00
75380;HTU21D;65641;44.714;37.756;2023-04-25T05:32:55;15.21;71.97
75380;HTU21D;65641;44.714;37.756;2023-04-25T05:33:59;15.23;71.93
75380;HTU21D;65641;44.714;37.756;2023-04-25T05:35:14;15.28;71.86
75380;HTU21D;65641;44.714;37.756;2023-04-25T05:36:21;15.32;71.79
75380;HTU21D;65641;44.714;37.756;2023-04-25T05:37:25;15.34;71.61
75380;HTU21D;65641;44.714;37.756;2023-04-25T05:38:32;15.38;71.48
75380;HTU21D;65641;44.714;37.756;2023-04-25T05:39:56;15.41;71.41
75380;HTU21D;65641;44.714;37.756;2023-04-25T05:41:23;15.45;71.24
75380;HTU21D;65641;44.714;37.756;2023-04-25T05:42:58;15.51;71.16
75380;HTU21D;65641;44.714;37.756;2023-04-25T05:44:24;15.52;71.10
75380;HTU21D;65641;44.714;37.756;2023-04-25T05:45:50;15.58;71.10
75380;HTU21D;65641;44.714;37.756;2023-04-25T05:47:16;15.60;71.20
75380;HTU21D;65641;44.714;37.756;2023-04-25T05:48:39;15.63;71.05
75380;HTU21D;65641;44.714;37.756;2023-04-25T05:50:12;15.70;71.06
75380;HTU21D;65641;44.714;37.756;2023-04-25T05:51:35;15.74;70.94
75380;HTU21D;65641;44.714;37.756;2023-04-25T05:52:51;15.80;70.91
75380;HTU21D;65641;44.714;37.756;2023-04-25T05:54:12;15.84;70.72
75380;HTU21D;65641;44.714;37.756;2023-04-25T05:55:15;15.88;70.64
75380;HTU21D;65641;44.714;37.756;2023-04-25T05:56:18;15.91;70.58
75380;HTU21D;65641;44.714;37.756;2023-04-25T05:57:25;15.96;70.58
75380;HTU21D;65641;44.714;37.756;2023-04-25T05:58:30;16.00;70.38
75380;HTU21D;65641;44.714;37.756;2023-04-25T05:59:34;16.05;70.38
75380;HTU21D;65641;44.714;37.756;2023-04-25T06:00:37;16.08;70.35
75380;HTU21D;65641;44.714;37.756;2023-04-25T06:01:41;16.12;70.21
75380;HTU21D;65641;44.714;37.756;2023-04-25T06:02:44;16.18;70.10
75380;HTU21D;65641;44.714;37.756;2023-04-25T06:03:49;16.21;70.03
75380;HTU21D;65641;44.714;37.756;2023-04-25T06:04:54;16.26;69.94
75380;HTU21D;65641;44.714;37.756;2023-04-25T06:05:58;16.32;69.83
75380;HTU21D;65641;44.714;37.756;2023-04-25T06:07:01;16.36;69.62
75380;HTU21D;65641;44.714;37.756;2023-04-25T06:08:04;16.41;69.43
75380;HTU21D;65641;44.714;37.756;2023-04-25T06:09:07;16.45;69.25
75380;HTU21D;65641;44.714;37.756;2023-04-25T06:10:10;16.51;69.17
75380;HTU21D;65641;44.714;37.756;2023-04-25T06:11:13;16.54;68.97
75380;HTU21D;65641;44.714;37.756;2023-04-25T06:12:16;16.58;68.82
75380;HTU21D;65641;44.714;37.756;2023-04-25T06:13:20;16.62;68.65
75380;HTU21D;65641;44.714;37.756;2023-04-25T06:14:23;16.64;68.49
75380;HTU21D;65641;44.714;37.756;2023-04-25T06:15:28;16.67;68.42
75380;HTU21D;65641;44.714;37.756;2023-04-25T06:16:31;16.71;68.32
75380;HTU21D;65641;44.714;37.756;2023-04-25T06:17:34;16.72;68.23
75380;HTU21D;65641;44.714;37.756;2023-04-25T06:18:38;16.75;68.17
75380;HTU21D;65641;44.714;37.756;2023-04-25T06:19:41;16.77;68.10
75380;HTU21D;65641;44.714;37.756;2023-04-25T06:20:43;16.78;68.04
75380;HTU21D;65641;44.714;37.756;2023-04-25T06:21:47;16.81;68.06
75380;HTU21D;65641;44.714;37.756;2023-04-25T06:22:50;16.84;68.01
75380;HTU21D;65641;44.714;37.756;2023-04-25T06:23:56;16.87;67.97
75380;HTU21D;65641;44.714;37.756;2023-04-25T06:24:59;16.87;67.93
75380;HTU21D;65641;44.714;37.756;2023-04-25T06:26:06;16.89;67.95
75380;HTU21D;65641;44.714;37.756;2023-04-25T06:27:11;16.91;67.87
75380;HTU21D;65641;44.714;37.756;2023-04-25T06:28:17;16.94;67.86
75380;HTU21D;65641;44.714;37.756;2023-04-25T06:29:21;16.95;67.85
75380;HTU21D;65641;44.714;37.756;2023-04-25T06:30:24;16.96;67.85
75380;HTU21D;65641;44.714;37.756;2023-04-25T06:31:33;16.99;67.79
75380;HTU21D;65641;44.714;37.756;2023-04-25T06:32:36;17.02;67.71
75380;HTU21D;65641;44.714;37.756;2023-04-25T06:33:39;17.01;67.76
75380;HTU21D;65641;44.714;37.756;2023-04-25T06:34:42;17.04;67.78
75380;HTU21D;65641;44.714;37.756;2023-04-25T06:35:46;17.04;67.79
75380;HTU21D;65641;44.714;37.756;2023-04-25T06:36:52;17.07;67.77
75380;HTU21D;65641;44.714;37.756;2023-04-25T06:37:55;17.08;67.86
75380;HTU21D;65641;44.714;37.756;2023-04-25T06:38:59;17.10;67.78
75380;HTU21D;65641;44.714;37.756;2023-04-25T06:40:02;17.16;67.74
75380;HTU21D;65641;44.714;37.756;2023-04-25T06:41:06;17.19;67.68
75380;HTU21D;65641;44.714;37.756;2023-04-25T06:42:11;17.21;67.59
75380;HTU21D;65641;44.714;37.756;2023-04-25T06:43:20;17.24;67.59
75380;HTU21D;65641;44.714;37.756;2023-04-25T06:44:39;17.28;67.49
75380;HTU21D;65641;44.714;37.756;2023-04-25T06:45:43;17.31;67.36
75380;HTU21D;65641;44.714;37.756;2023-04-25T06:46:49;17.33;67.21
75380;HTU21D;65641;44.714;37.756;2023-04-25T06:47:53;17.34;67.23
75380;HTU21D;65641;44.714;37.756;2023-04-25T06:48:57;17.36;67.18
75380;HTU21D;65641;44.714;37.756;2023-04-25T06:50:00;17.39;67.17
75380;HTU21D;65641;44.714;37.756;2023-04-25T06:51:04;17.41;67.20
75380;HTU21D;65641;44.714;37.756;2023-04-25T06:52:09;17.43;67.09